sensor_id;sensor_type;location;lat;lon;timestamp;P1;durP1;ratioP1;P2;durP2;ratioP2
26920;SDS011;14483;47.844;9.660;2022-09-12T00:00:30;3.67;;;1.00;;
26920;SDS011;14483;47.844;9.660;2022-09-12T00:02:57;7.03;;;1.05;;
26920;SDS011;14483;47.844;9.660;2022-09-12T00:05:24;2.40;;;1.02;;
26920;SDS011;14483;47.844;9.660;2022-09-12T00:07:50;2.47;;;0.77;;
26920;SDS011;14483;47.844;9.660;2022-09-12T00:10:16;1.10;;;0.80;;
26920;SDS011;14483;47.844;9.660;2022-09-12T00:12:44;1.90;;;0.90;;
26920;SDS011;14483;47.844;9.660;2022-09-12T00:15:10;1.60;;;0.77;;
26920;SDS011;14483;47.844;9.660;2022-09-12T00:17:37;3.72;;;1.00;;
26920;SDS011;14483;47.844;9.660;2022-09-12T00:20:04;1.67;;;0.95;;
26920;SDS011;14483;47.844;9.660;2022-09-12T00:22:31;2.75;;;1.02;;
26920;SDS011;14483;47.844;9.660;2022-09-12T00:24:57;1.60;;;0.80;;
26920;SDS011;14483;47.844;9.660;2022-09-12T00:27:24;1.50;;;0.93;;
26920;SDS011;14483;47.844;9.660;2022-09-12T00:29:52;4.05;;;1.42;;
26920;SDS011;14483;47.844;9.660;2022-09-12T00:32:18;2.50;;;0.98;;
26920;SDS011;14483;47.844;9.660;2022-09-12T00:34:44;3.65;;;0.90;;
26920;SDS011;14483;47.844;9.660;2022-09-12T00:37:11;3.75;;;1.15;;
26920;SDS011;14483;47.844;9.660;2022-09-12T00:39:37;2.67;;;0.90;;
26920;SDS011;14483;47.844;9.660;2022-09-12T00:42:04;5.60;;;0.95;;
26920;SDS011;14483;47.844;9.660;2022-09-12T00:44:47;1.55;;;0.90;;
26920;SDS011;14483;47.844;9.660;2022-09-12T00:47:17;1.42;;;0.82;;
26920;SDS011;14483;47.844;9.660;2022-09-12T00:49:44;2.63;;;0.80;;
26920;SDS011;14483;47.844;9.660;2022-09-12T00:52:12;3.25;;;0.77;;
26920;SDS011;14483;47.844;9.660;2022-09-12T00:54:40;3.50;;;0.98;;
26920;SDS011;14483;47.844;9.660;2022-09-12T00:57:08;7.10;;;0.98;;
26920;SDS011;14483;47.844;9.660;2022-09-12T00:59:37;2.10;;;0.75;;
26920;SDS011;14483;47.844;9.660;2022-09-12T01:02:04;3.92;;;1.02;;
26920;SDS011;14483;47.844;9.660;2022-09-12T01:04:32;2.33;;;0.80;;
26920;SDS011;14483;47.844;9.660;2022-09-12T01:07:01;1.83;;;0.80;;
26920;SDS011;14483;47.844;9.660;2022-09-12T01:09:29;5.93;;;1.15;;
26920;SDS011;14483;47.844;9.660;2022-09-12T01:11:55;3.17;;;1.17;;
26920;SDS011;14483;47.844;9.660;2022-09-12T01:14:22;4.15;;;0.85;;
26920;SDS011;14483;47.844;9.660;2022-09-12T01:16:48;1.63;;;0.80;;
26920;SDS011;14483;47.844;9.660;2022-09-12T01:22:04;2.92;;;0.88;;
26920;SDS011;14483;47.844;9.660;2022-09-12T01:24:49;1.83;;;0.80;;
26920;SDS011;14483;47.844;9.660;2022-09-12T01:27:26;1.80;;;1.00;;
26920;SDS011;14483;47.844;9.660;2022-09-12T01:32:39;3.35;;;0.90;;
26920;SDS011;14483;47.844;9.660;2022-09-12T01:35:13;1.27;;;0.85;;
26920;SDS011;14483;47.844;9.660;2022-09-12T01:37:45;2.17;;;1.35;;
26920;SDS011;14483;47.844;9.660;2022-09-12T01:40:18;3.10;;;0.95;;
26920;SDS011;14483;47.844;9.660;2022-09-12T01:42:49;2.03;;;0.90;;
26920;SDS011;14483;47.844;9.660;2022-09-12T01:45:17;2.55;;;0.98;;
26920;SDS011;14483;47.844;9.660;2022-09-12T01:47:48;1.55;;;0.90;;
26920;SDS011;14483;47.844;9.660;2022-09-12T01:50:16;1.75;;;0.98;;
26920;SDS011;14483;47.844;9.660;2022-09-12T01:52:45;1.38;;;0.90;;
26920;SDS011;14483;47.844;9.660;2022-09-12T01:55:15;2.90;;;0.90;;
26920;SDS011;14483;47.844;9.660;2022-09-12T01:57:43;1.52;;;0.93;;
26920;SDS011;14483;47.844;9.660;2022-09-12T02:00:11;1.25;;;0.70;;
26920;SDS011;14483;47.844;9.660;2022-09-12T02:02:38;1.13;;;0.80;;
26920;SDS011;14483;47.844;9.660;2022-09-12T02:05:08;4.38;;;0.70;;
26920;SDS011;14483;47.844;9.660;2022-09-12T02:07:36;3.75;;;1.05;;
26920;SDS011;14483;47.844;9.660;2022-09-12T02:10:05;1.58;;;0.70;;
26920;SDS011;14483;47.844;9.660;2022-09-12T02:12:35;1.50;;;0.80;;
26920;SDS011;14483;47.844;9.660;2022-09-12T02:15:03;1.40;;;0.90;;
26920;SDS011;14483;47.844;9.660;2022-09-12T02:17:33;2.47;;;1.02;;
26920;SDS011;14483;47.844;9.660;2022-09-12T02:20:03;2.20;;;1.05;;
26920;SDS011;14483;47.844;9.660;2022-09-12T02:22:32;3.50;;;0.98;;
26920;SDS011;14483;47.844;9.660;2022-09-12T02:25:00;2.33;;;0.80;;
26920;SDS011;14483;47.844;9.660;2022-09-12T02:27:29;3.92;;;1.00;;
26920;SDS011;14483;47.844;9.660;2022-09-12T02:29:58;1.30;;;0.80;;
26920;SDS011;14483;47.844;9.660;2022-09-12T02:32:27;1.50;;;0.90;;
26920;SDS011;14483;47.844;9.660;2022-09-12T02:34:55;2.25;;;0.90;;
26920;SDS011;14483;47.844;9.660;2022-09-12T02:37:24;3.10;;;1.00;;
26920;SDS011;14483;47.844;9.660;2022-09-12T02:39:57;2.00;;;0.98;;
26920;SDS011;14483;47.844;9.660;2022-09-12T02:42:25;1.30;;;0.93;;
26920;SDS011;14483;47.844;9.660;2022-09-12T02:44:51;1.88;;;0.90;;
26920;SDS011;14483;47.844;9.660;2022-09-12T02:47:19;1.00;;;0.60;;
26920;SDS011;14483;47.844;9.660;2022-09-12T02:49:48;5.03;;;1.00;;
26920;SDS011;14483;47.844;9.660;2022-09-12T02:52:14;1.15;;;0.80;;
26920;SDS011;14483;47.844;9.660;2022-09-12T02:54:41;1.52;;;0.90;;
26920;SDS011;14483;47.844;9.660;2022-09-12T02:57:15;2.13;;;0.90;;
26920;SDS011;14483;47.844;9.660;2022-09-12T02:59:42;3.05;;;0.90;;
26920;SDS011;14483;47.844;9.660;2022-09-12T03:07:56;2.80;;;0.90;;
26920;SDS011;14483;47.844;9.660;2022-09-12T03:10:24;1.08;;;0.68;;
26920;SDS011;14483;47.844;9.660;2022-09-12T03:12:55;1.17;;;0.80;;
26920;SDS011;14483;47.844;9.660;2022-09-12T03:15:31;3.55;;;1.08;;
26920;SDS011;14483;47.844;9.660;2022-09-12T03:18:05;1.80;;;0.95;;
26920;SDS011;14483;47.844;9.660;2022-09-12T03:20:36;2.58;;;0.73;;
26920;SDS011;14483;47.844;9.660;2022-09-12T03:23:08;4.65;;;1.05;;
26920;SDS011;14483;47.844;9.660;2022-09-12T03:25:39;1.52;;;0.95;;
26920;SDS011;14483;47.844;9.660;2022-09-12T03:28:09;2.50;;;0.85;;
26920;SDS011;14483;47.844;9.660;2022-09-12T03:30:37;3.58;;;0.82;;
26920;SDS011;14483;47.844;9.660;2022-09-12T03:33:04;4.03;;;0.80;;
26920;SDS011;14483;47.844;9.660;2022-09-12T03:35:31;3.55;;;0.90;;
26920;SDS011;14483;47.844;9.660;2022-09-12T03:37:57;1.27;;;0.70;;
26920;SDS011;14483;47.844;9.660;2022-09-12T03:40:23;2.92;;;0.80;;
26920;SDS011;14483;47.844;9.660;2022-09-12T03:42:50;2.90;;;0.88;;
26920;SDS011;14483;47.844;9.660;2022-09-12T03:45:17;3.08;;;0.80;;
26920;SDS011;14483;47.844;9.660;2022-09-12T03:47:44;1.15;;;0.65;;
26920;SDS011;14483;47.844;9.660;2022-09-12T03:50:10;2.85;;;0.80;;
26920;SDS011;14483;47.844;9.660;2022-09-12T03:52:36;2.53;;;0.90;;
26920;SDS011;14483;47.844;9.660;2022-09-12T03:55:03;0.93;;;0.73;;
26920;SDS011;14483;47.844;9.660;2022-09-12T03:57:29;1.70;;;0.70;;
26920;SDS011;14483;47.844;9.660;2022-09-12T03:59:56;2.40;;;0.77;;
26920;SDS011;14483;47.844;9.660;2022-09-12T04:02:24;4.97;;;0.80;;
26920;SDS011;14483;47.844;9.660;2022-09-12T04:04:50;1.35;;;0.77;;
26920;SDS011;14483;47.844;9.660;2022-09-12T04:07:17;1.02;;;0.65;;
26920;SDS011;14483;47.844;9.660;2022-09-12T04:09:43;1.70;;;0.80;;
26920;SDS011;14483;47.844;9.660;2022-09-12T04:12:10;2.15;;;0.70;;
26920;SDS011;14483;47.844;9.660;2022-09-12T04:14:36;1.65;;;0.75;;
26920;SDS011;14483;47.844;9.660;2022-09-12T04:17:03;1.45;;;0.90;;
26920;SDS011;14483;47.844;9.660;2022-09-12T04:19:31;1.20;;;0.70;;
26920;SDS011;14483;47.844;9.660;2022-09-12T04:21:57;3.70;;;1.33;;
26920;SDS011;14483;47.844;9.660;2022-09-12T04:24:23;0.95;;;0.63;;
26920;SDS011;14483;47.844;9.660;2022-09-12T04:26:50;3.05;;;0.82;;
26920;SDS011;14483;47.844;9.660;2022-09-12T04:29:16;1.38;;;0.80;;
26920;SDS011;14483;47.844;9.660;2022-09-12T04:31:43;2.28;;;0.73;;
26920;SDS011;14483;47.844;9.660;2022-09-12T04:34:09;6.75;;;3.75;;
26920;SDS011;14483;47.844;9.660;2022-09-12T04:36:37;3.58;;;1.20;;
26920;SDS011;14483;47.844;9.660;2022-09-12T04:39:03;4.63;;;1.00;;
26920;SDS011;14483;47.844;9.660;2022-09-12T04:41:31;3.67;;;0.93;;
26920;SDS011;14483;47.844;9.660;2022-09-12T04:43:58;4.40;;;1.52;;
26920;SDS011;14483;47.844;9.660;2022-09-12T04:46:25;3.33;;;1.10;;
26920;SDS011;14483;47.844;9.660;2022-09-12T04:48:52;2.00;;;0.88;;
26920;SDS011;14483;47.844;9.660;2022-09-12T04:51:19;3.00;;;0.82;;
26920;SDS011;14483;47.844;9.660;2022-09-12T04:53:48;1.90;;;0.80;;
26920;SDS011;14483;47.844;9.660;2022-09-12T04:56:15;6.38;;;1.17;;
26920;SDS011;14483;47.844;9.660;2022-09-12T04:58:41;2.50;;;0.95;;
26920;SDS011;14483;47.844;9.660;2022-09-12T05:01:08;2.75;;;1.00;;
26920;SDS011;14483;47.844;9.660;2022-09-12T05:03:35;4.43;;;1.10;;
26920;SDS011;14483;47.844;9.660;2022-09-12T05:06:03;1.30;;;0.75;;
26920;SDS011;14483;47.844;9.660;2022-09-12T05:08:30;2.05;;;0.82;;
26920;SDS011;14483;47.844;9.660;2022-09-12T05:10:57;1.23;;;0.80;;
26920;SDS011;14483;47.844;9.660;2022-09-12T05:13:27;3.05;;;0.88;;
26920;SDS011;14483;47.844;9.660;2022-09-12T05:15:54;2.53;;;0.55;;
26920;SDS011;14483;47.844;9.660;2022-09-12T05:18:20;1.80;;;1.02;;
26920;SDS011;14483;47.844;9.660;2022-09-12T05:20:46;5.95;;;2.50;;
26920;SDS011;14483;47.844;9.660;2022-09-12T05:23:13;8.02;;;3.60;;
26920;SDS011;14483;47.844;9.660;2022-09-12T05:25:40;4.40;;;2.33;;
26920;SDS011;14483;47.844;9.660;2022-09-12T05:28:14;4.40;;;1.08;;
26920;SDS011;14483;47.844;9.660;2022-09-12T05:30:40;3.25;;;0.80;;
26920;SDS011;14483;47.844;9.660;2022-09-12T05:33:06;3.63;;;0.80;;
26920;SDS011;14483;47.844;9.660;2022-09-12T05:35:33;2.17;;;0.90;;
26920;SDS011;14483;47.844;9.660;2022-09-12T05:38:02;1.17;;;0.73;;
26920;SDS011;14483;47.844;9.660;2022-09-12T05:40:28;2.85;;;0.70;;
26920;SDS011;14483;47.844;9.660;2022-09-12T05:42:54;2.88;;;0.65;;
26920;SDS011;14483;47.844;9.660;2022-09-12T05:45:22;6.53;;;0.88;;
26920;SDS011;14483;47.844;9.660;2022-09-12T05:47:49;1.52;;;0.70;;
26920;SDS011;14483;47.844;9.660;2022-09-12T05:50:15;2.47;;;0.90;;
26920;SDS011;14483;47.844;9.660;2022-09-12T05:52:42;3.75;;;0.70;;
26920;SDS011;14483;47.844;9.660;2022-09-12T05:55:08;2.97;;;1.08;;
26920;SDS011;14483;47.844;9.660;2022-09-12T05:57:35;3.28;;;0.50;;
26920;SDS011;14483;47.844;9.660;2022-09-12T06:00:02;1.25;;;0.73;;
26920;SDS011;14483;47.844;9.660;2022-09-12T06:02:30;3.17;;;0.75;;
26920;SDS011;14483;47.844;9.660;2022-09-12T06:04:57;1.05;;;0.80;;
26920;SDS011;14483;47.844;9.660;2022-09-12T06:07:23;1.77;;;1.00;;
26920;SDS011;14483;47.844;9.660;2022-09-12T06:09:50;4.38;;;1.20;;
26920;SDS011;14483;47.844;9.660;2022-09-12T06:12:16;3.22;;;1.00;;
26920;SDS011;14483;47.844;9.660;2022-09-12T06:14:43;3.22;;;1.25;;
26920;SDS011;14483;47.844;9.660;2022-09-12T06:17:09;3.00;;;1.08;;
26920;SDS011;14483;47.844;9.660;2022-09-12T06:19:37;4.28;;;1.60;;
26920;SDS011;14483;47.844;9.660;2022-09-12T06:22:03;2.10;;;1.42;;
26920;SDS011;14483;47.844;9.660;2022-09-12T06:24:29;5.20;;;1.35;;
26920;SDS011;14483;47.844;9.660;2022-09-12T06:26:56;2.00;;;1.40;;
26920;SDS011;14483;47.844;9.660;2022-09-12T06:29:22;5.35;;;1.55;;
26920;SDS011;14483;47.844;9.660;2022-09-12T06:31:48;4.78;;;1.67;;
26920;SDS011;14483;47.844;9.660;2022-09-12T06:34:15;6.63;;;1.98;;
26920;SDS011;14483;47.844;9.660;2022-09-12T06:36:43;3.05;;;1.55;;
26920;SDS011;14483;47.844;9.660;2022-09-12T06:39:10;2.58;;;1.65;;
26920;SDS011;14483;47.844;9.660;2022-09-12T06:41:37;2.78;;;1.73;;
26920;SDS011;14483;47.844;9.660;2022-09-12T06:44:03;3.00;;;1.65;;
26920;SDS011;14483;47.844;9.660;2022-09-12T06:46:31;2.50;;;1.65;;
26920;SDS011;14483;47.844;9.660;2022-09-12T06:48:57;4.90;;;1.80;;
26920;SDS011;14483;47.844;9.660;2022-09-12T06:51:24;4.90;;;1.98;;
26920;SDS011;14483;47.844;9.660;2022-09-12T06:53:53;2.33;;;1.50;;
26920;SDS011;14483;47.844;9.660;2022-09-12T06:56:20;6.05;;;2.03;;
26920;SDS011;14483;47.844;9.660;2022-09-12T06:58:48;10.45;;;1.90;;
26920;SDS011;14483;47.844;9.660;2022-09-12T07:01:15;3.17;;;1.95;;
26920;SDS011;14483;47.844;9.660;2022-09-12T07:03:41;6.47;;;1.80;;
26920;SDS011;14483;47.844;9.660;2022-09-12T07:06:08;4.78;;;1.70;;
26920;SDS011;14483;47.844;9.660;2022-09-12T07:08:35;5.15;;;2.08;;
26920;SDS011;14483;47.844;9.660;2022-09-12T07:11:09;2.35;;;1.70;;
26920;SDS011;14483;47.844;9.660;2022-09-12T07:13:35;3.72;;;1.77;;
26920;SDS011;14483;47.844;9.660;2022-09-12T07:16:03;5.03;;;2.08;;
26920;SDS011;14483;47.844;9.660;2022-09-12T07:18:29;2.72;;;1.80;;
26920;SDS011;14483;47.844;9.660;2022-09-12T07:20:55;4.28;;;1.67;;
26920;SDS011;14483;47.844;9.660;2022-09-12T07:23:24;2.65;;;1.88;;
26920;SDS011;14483;47.844;9.660;2022-09-12T07:25:51;2.28;;;1.27;;
26920;SDS011;14483;47.844;9.660;2022-09-12T07:28:19;5.78;;;1.80;;
26920;SDS011;14483;47.844;9.660;2022-09-12T07:30:45;7.10;;;1.98;;
26920;SDS011;14483;47.844;9.660;2022-09-12T07:33:12;4.10;;;1.70;;
26920;SDS011;14483;47.844;9.660;2022-09-12T07:35:38;3.67;;;1.50;;
26920;SDS011;14483;47.844;9.660;2022-09-12T07:38:04;6.03;;;2.20;;
26920;SDS011;14483;47.844;9.660;2022-09-12T07:40:31;4.25;;;2.00;;
26920;SDS011;14483;47.844;9.660;2022-09-12T07:42:57;3.92;;;2.17;;
26920;SDS011;14483;47.844;9.660;2022-09-12T07:45:25;2.92;;;2.05;;
26920;SDS011;14483;47.844;9.660;2022-09-12T07:47:52;5.22;;;2.13;;
26920;SDS011;14483;47.844;9.660;2022-09-12T07:50:18;4.28;;;2.40;;
26920;SDS011;14483;47.844;9.660;2022-09-12T07:52:45;5.22;;;2.00;;
26920;SDS011;14483;47.844;9.660;2022-09-12T07:55:11;7.32;;;2.58;;
26920;SDS011;14483;47.844;9.660;2022-09-12T07:57:38;9.05;;;1.92;;
26920;SDS011;14483;47.844;9.660;2022-09-12T08:00:04;2.03;;;1.35;;
26920;SDS011;14483;47.844;9.660;2022-09-12T08:02:33;4.30;;;1.50;;
26920;SDS011;14483;47.844;9.660;2022-09-12T08:05:00;2.30;;;1.45;;
26920;SDS011;14483;47.844;9.660;2022-09-12T08:07:26;4.68;;;1.08;;
26920;SDS011;14483;47.844;9.660;2022-09-12T08:09:52;4.95;;;1.67;;
26920;SDS011;14483;47.844;9.660;2022-09-12T08:12:19;5.32;;;1.52;;
26920;SDS011;14483;47.844;9.660;2022-09-12T08:14:45;3.30;;;1.42;;
26920;SDS011;14483;47.844;9.660;2022-09-12T08:17:12;2.00;;;1.25;;
26920;SDS011;14483;47.844;9.660;2022-09-12T08:19:40;4.20;;;1.35;;
26920;SDS011;14483;47.844;9.660;2022-09-12T08:22:06;4.78;;;1.10;;
26920;SDS011;14483;47.844;9.660;2022-09-12T08:24:33;1.42;;;1.02;;
26920;SDS011;14483;47.844;9.660;2022-09-12T08:27:00;2.60;;;1.02;;
26920;SDS011;14483;47.844;9.660;2022-09-12T08:29:26;2.10;;;0.73;;
26920;SDS011;14483;47.844;9.660;2022-09-12T08:31:52;2.95;;;1.00;;
26920;SDS011;14483;47.844;9.660;2022-09-12T08:34:19;7.13;;;0.88;;
26920;SDS011;14483;47.844;9.660;2022-09-12T08:36:46;1.77;;;0.75;;
26920;SDS011;14483;47.844;9.660;2022-09-12T08:39:13;0.70;;;0.55;;
26920;SDS011;14483;47.844;9.660;2022-09-12T08:41:40;3.35;;;0.70;;
26920;SDS011;14483;47.844;9.660;2022-09-12T08:44:16;2.05;;;0.70;;
26920;SDS011;14483;47.844;9.660;2022-09-12T08:46:46;1.55;;;0.80;;
26920;SDS011;14483;47.844;9.660;2022-09-12T08:49:18;1.02;;;0.68;;
26920;SDS011;14483;47.844;9.660;2022-09-12T08:51:49;4.15;;;0.73;;
26920;SDS011;14483;47.844;9.660;2022-09-12T08:54:20;2.70;;;0.88;;
26920;SDS011;14483;47.844;9.660;2022-09-12T08:56:48;1.15;;;0.60;;
26920;SDS011;14483;47.844;9.660;2022-09-12T08:59:15;5.07;;;0.55;;
26920;SDS011;14483;47.844;9.660;2022-09-12T09:01:43;1.20;;;0.60;;
26920;SDS011;14483;47.844;9.660;2022-09-12T09:07:00;1.13;;;0.63;;
26920;SDS011;14483;47.844;9.660;2022-09-12T09:09:34;1.08;;;0.68;;
26920;SDS011;14483;47.844;9.660;2022-09-12T09:12:05;1.63;;;0.60;;
26920;SDS011;14483;47.844;9.660;2022-09-12T09:14:50;1.52;;;0.70;;
26920;SDS011;14483;47.844;9.660;2022-09-12T09:17:21;3.25;;;0.60;;
26920;SDS011;14483;47.844;9.660;2022-09-12T09:19:50;0.70;;;0.57;;
26920;SDS011;14483;47.844;9.660;2022-09-12T09:22:22;1.08;;;0.60;;
26920;SDS011;14483;47.844;9.660;2022-09-12T09:24:54;1.52;;;0.80;;
26920;SDS011;14483;47.844;9.660;2022-09-12T09:27:25;1.15;;;0.73;;
26920;SDS011;14483;47.844;9.660;2022-09-12T09:29:53;1.10;;;0.55;;
26920;SDS011;14483;47.844;9.660;2022-09-12T09:32:23;1.55;;;0.60;;
26920;SDS011;14483;47.844;9.660;2022-09-12T09:34:50;3.65;;;0.77;;
26920;SDS011;14483;47.844;9.660;2022-09-12T09:37:17;2.05;;;0.70;;
26920;SDS011;14483;47.844;9.660;2022-09-12T09:39:51;1.85;;;0.60;;
26920;SDS011;14483;47.844;9.660;2022-09-12T09:42:26;1.10;;;0.50;;
26920;SDS011;14483;47.844;9.660;2022-09-12T09:44:55;5.82;;;0.70;;
26920;SDS011;14483;47.844;9.660;2022-09-12T09:47:24;1.50;;;0.52;;
26920;SDS011;14483;47.844;9.660;2022-09-12T09:49:50;1.85;;;0.50;;
26920;SDS011;14483;47.844;9.660;2022-09-12T09:52:19;1.23;;;0.40;;
26920;SDS011;14483;47.844;9.660;2022-09-12T09:54:51;0.60;;;0.50;;
26920;SDS011;14483;47.844;9.660;2022-09-12T09:57:37;0.90;;;0.47;;
26920;SDS011;14483;47.844;9.660;2022-09-12T10:00:18;0.70;;;0.40;;
26920;SDS011;14483;47.844;9.660;2022-09-12T10:02:56;0.47;;;0.47;;
26920;SDS011;14483;47.844;9.660;2022-09-12T10:05:23;0.98;;;0.60;;
26920;SDS011;14483;47.844;9.660;2022-09-12T10:07:49;0.70;;;0.45;;
26920;SDS011;14483;47.844;9.660;2022-09-12T10:10:19;0.68;;;0.35;;
26920;SDS011;14483;47.844;9.660;2022-09-12T10:12:46;0.55;;;0.40;;
26920;SDS011;14483;47.844;9.660;2022-09-12T10:15:15;2.63;;;0.77;;
26920;SDS011;14483;47.844;9.660;2022-09-12T10:17:43;2.45;;;0.85;;
26920;SDS011;14483;47.844;9.660;2022-09-12T10:22:51;0.70;;;0.60;;
26920;SDS011;14483;47.844;9.660;2022-09-12T10:25:19;1.17;;;0.47;;
26920;SDS011;14483;47.844;9.660;2022-09-12T10:27:51;2.42;;;0.50;;
26920;SDS011;14483;47.844;9.660;2022-09-12T10:30:18;1.27;;;0.88;;
26920;SDS011;14483;47.844;9.660;2022-09-12T10:32:46;1.13;;;0.50;;
26920;SDS011;14483;47.844;9.660;2022-09-12T10:35:16;0.73;;;0.55;;
26920;SDS011;14483;47.844;9.660;2022-09-12T10:37:53;2.33;;;0.50;;
26920;SDS011;14483;47.844;9.660;2022-09-12T10:40:24;0.80;;;0.50;;
26920;SDS011;14483;47.844;9.660;2022-09-12T10:42:52;2.13;;;0.43;;
26920;SDS011;14483;47.844;9.660;2022-09-12T10:45:22;2.15;;;0.38;;
26920;SDS011;14483;47.844;9.660;2022-09-12T10:47:49;1.25;;;0.52;;
26920;SDS011;14483;47.844;9.660;2022-09-12T10:50:18;3.40;;;0.50;;
26920;SDS011;14483;47.844;9.660;2022-09-12T10:52:44;1.45;;;0.60;;
26920;SDS011;14483;47.844;9.660;2022-09-12T10:55:12;1.17;;;0.43;;
26920;SDS011;14483;47.844;9.660;2022-09-12T10:57:50;0.80;;;0.40;;
26920;SDS011;14483;47.844;9.660;2022-09-12T11:00:20;1.02;;;0.50;;
26920;SDS011;14483;47.844;9.660;2022-09-12T11:02:56;1.42;;;0.60;;
26920;SDS011;14483;47.844;9.660;2022-09-12T11:08:13;1.90;;;0.50;;
26920;SDS011;14483;47.844;9.660;2022-09-12T11:10:44;1.58;;;0.50;;
26920;SDS011;14483;47.844;9.660;2022-09-12T11:13:16;2.22;;;0.55;;
26920;SDS011;14483;47.844;9.660;2022-09-12T11:15:54;0.77;;;0.50;;
26920;SDS011;14483;47.844;9.660;2022-09-12T11:18:28;1.25;;;0.50;;
26920;SDS011;14483;47.844;9.660;2022-09-12T11:21:02;0.50;;;0.30;;
26920;SDS011;14483;47.844;9.660;2022-09-12T11:26:21;1.40;;;0.60;;
26920;SDS011;14483;47.844;9.660;2022-09-12T11:28:53;1.73;;;0.60;;
26920;SDS011;14483;47.844;9.660;2022-09-12T11:31:31;2.13;;;0.40;;
26920;SDS011;14483;47.844;9.660;2022-09-12T11:34:02;0.75;;;0.47;;
26920;SDS011;14483;47.844;9.660;2022-09-12T11:36:35;1.53;;;0.50;;
26920;SDS011;14483;47.844;9.660;2022-09-12T11:39:05;1.38;;;0.50;;
26920;SDS011;14483;47.844;9.660;2022-09-12T11:41:34;0.77;;;0.35;;
26920;SDS011;14483;47.844;9.660;2022-09-12T11:44:07;2.38;;;0.50;;
26920;SDS011;14483;47.844;9.660;2022-09-12T11:46:35;0.73;;;0.43;;
26920;SDS011;14483;47.844;9.660;2022-09-12T11:49:04;2.58;;;0.60;;
26920;SDS011;14483;47.844;9.660;2022-09-12T11:51:32;0.40;;;0.30;;
26920;SDS011;14483;47.844;9.660;2022-09-12T11:54:05;1.70;;;1.02;;
26920;SDS011;14483;47.844;9.660;2022-09-12T11:56:34;1.30;;;0.95;;
26920;SDS011;14483;47.844;9.660;2022-09-12T11:59:08;3.65;;;0.50;;
26920;SDS011;14483;47.844;9.660;2022-09-12T12:01:37;2.58;;;0.50;;
26920;SDS011;14483;47.844;9.660;2022-09-12T12:04:05;2.13;;;0.55;;
26920;SDS011;14483;47.844;9.660;2022-09-12T12:06:35;0.60;;;0.50;;
26920;SDS011;14483;47.844;9.660;2022-09-12T12:09:05;0.50;;;0.30;;
26920;SDS011;14483;47.844;9.660;2022-09-12T12:11:32;0.77;;;0.30;;
26920;SDS011;14483;47.844;9.660;2022-09-12T12:13:59;1.15;;;0.40;;
26920;SDS011;14483;47.844;9.660;2022-09-12T12:16:28;3.22;;;0.52;;
26920;SDS011;14483;47.844;9.660;2022-09-12T12:18:56;1.15;;;0.50;;
26920;SDS011;14483;47.844;9.660;2022-09-12T12:21:31;0.82;;;0.60;;
26920;SDS011;14483;47.844;9.660;2022-09-12T12:24:09;1.25;;;0.50;;
26920;SDS011;14483;47.844;9.660;2022-09-12T12:26:41;0.82;;;0.60;;
26920;SDS011;14483;47.844;9.660;2022-09-12T12:29:08;3.40;;;0.60;;
26920;SDS011;14483;47.844;9.660;2022-09-12T12:31:47;0.57;;;0.32;;
26920;SDS011;14483;47.844;9.660;2022-09-12T12:34:33;1.20;;;0.45;;
26920;SDS011;14483;47.844;9.660;2022-09-12T12:37:43;4.95;;;0.52;;
26920;SDS011;14483;47.844;9.660;2022-09-12T12:39:55;1.60;;;0.40;;
26920;SDS011;14483;47.844;9.660;2022-09-12T12:47:54;0.60;;;0.40;;
26920;SDS011;14483;47.844;9.660;2022-09-12T12:50:22;1.05;;;0.40;;
26920;SDS011;14483;47.844;9.660;2022-09-12T12:52:51;0.32;;;0.30;;
26920;SDS011;14483;47.844;9.660;2022-09-12T12:55:20;0.85;;;0.47;;
26920;SDS011;14483;47.844;9.660;2022-09-12T12:57:50;0.73;;;0.20;;
26920;SDS011;14483;47.844;9.660;2022-09-12T13:00:24;1.35;;;0.30;;
26920;SDS011;14483;47.844;9.660;2022-09-12T13:02:55;0.30;;;0.30;;
26920;SDS011;14483;47.844;9.660;2022-09-12T13:05:22;1.70;;;0.30;;
26920;SDS011;14483;47.844;9.660;2022-09-12T13:07:52;0.75;;;0.55;;
26920;SDS011;14483;47.844;9.660;2022-09-12T13:10:20;2.83;;;0.82;;
26920;SDS011;14483;47.844;9.660;2022-09-12T13:12:47;0.57;;;0.30;;
26920;SDS011;14483;47.844;9.660;2022-09-12T13:20:43;0.68;;;0.20;;
26920;SDS011;14483;47.844;9.660;2022-09-12T13:23:20;0.98;;;0.20;;
26920;SDS011;14483;47.844;9.660;2022-09-12T13:25:50;1.58;;;0.30;;
26920;SDS011;14483;47.844;9.660;2022-09-12T13:28:17;0.63;;;0.38;;
26920;SDS011;14483;47.844;9.660;2022-09-12T13:30:44;0.68;;;0.30;;
26920;SDS011;14483;47.844;9.660;2022-09-12T13:33:18;0.93;;;0.30;;
26920;SDS011;14483;47.844;9.660;2022-09-12T13:35:52;0.45;;;0.25;;
26920;SDS011;14483;47.844;9.660;2022-09-12T13:38:24;1.33;;;0.32;;
26920;SDS011;14483;47.844;9.660;2022-09-12T13:40:57;6.35;;;0.50;;
26920;SDS011;14483;47.844;9.660;2022-09-12T13:43:34;0.90;;;0.28;;
26920;SDS011;14483;47.844;9.660;2022-09-12T13:46:02;2.40;;;0.45;;
26920;SDS011;14483;47.844;9.660;2022-09-12T13:48:28;0.30;;;0.30;;
26920;SDS011;14483;47.844;9.660;2022-09-12T13:50:56;0.50;;;0.20;;
26920;SDS011;14483;47.844;9.660;2022-09-12T13:53:24;2.33;;;0.32;;
26920;SDS011;14483;47.844;9.660;2022-09-12T13:55:52;0.70;;;0.30;;
26920;SDS011;14483;47.844;9.660;2022-09-12T13:58:21;0.30;;;0.20;;
26920;SDS011;14483;47.844;9.660;2022-09-12T14:00:59;1.05;;;0.40;;
26920;SDS011;14483;47.844;9.660;2022-09-12T14:03:26;1.50;;;0.40;;
26920;SDS011;14483;47.844;9.660;2022-09-12T14:06:14;1.17;;;0.35;;
26920;SDS011;14483;47.844;9.660;2022-09-12T14:11:09;0.75;;;0.20;;
26920;SDS011;14483;47.844;9.660;2022-09-12T14:13:36;0.55;;;0.55;;
26920;SDS011;14483;47.844;9.660;2022-09-12T14:16:04;0.45;;;0.13;;
26920;SDS011;14483;47.844;9.660;2022-09-12T14:18:34;0.30;;;0.20;;
26920;SDS011;14483;47.844;9.660;2022-09-12T14:21:04;0.43;;;0.20;;
26920;SDS011;14483;47.844;9.660;2022-09-12T14:23:35;4.65;;;0.30;;
26920;SDS011;14483;47.844;9.660;2022-09-12T14:26:03;0.88;;;0.22;;
26920;SDS011;14483;47.844;9.660;2022-09-12T14:28:33;0.88;;;0.20;;
26920;SDS011;14483;47.844;9.660;2022-09-12T14:31:01;1.45;;;0.20;;
26920;SDS011;14483;47.844;9.660;2022-09-12T14:33:30;3.50;;;0.25;;
26920;SDS011;14483;47.844;9.660;2022-09-12T14:36:07;0.38;;;0.38;;
26920;SDS011;14483;47.844;9.660;2022-09-12T14:38:37;0.85;;;0.28;;
26920;SDS011;14483;47.844;9.660;2022-09-12T14:41:06;1.23;;;0.22;;
26920;SDS011;14483;47.844;9.660;2022-09-12T14:43:33;0.45;;;0.20;;
26920;SDS011;14483;47.844;9.660;2022-09-12T14:46:01;1.25;;;0.30;;
26920;SDS011;14483;47.844;9.660;2022-09-12T14:48:28;0.88;;;0.30;;
26920;SDS011;14483;47.844;9.660;2022-09-12T14:50:56;0.55;;;0.30;;
26920;SDS011;14483;47.844;9.660;2022-09-12T14:53:24;3.53;;;0.73;;
26920;SDS011;14483;47.844;9.660;2022-09-12T14:55:52;0.60;;;0.43;;
26920;SDS011;14483;47.844;9.660;2022-09-12T14:58:22;0.30;;;0.30;;
26920;SDS011;14483;47.844;9.660;2022-09-12T15:00:57;0.50;;;0.40;;
26920;SDS011;14483;47.844;9.660;2022-09-12T15:03:28;1.45;;;0.50;;
26920;SDS011;14483;47.844;9.660;2022-09-12T15:05:55;0.95;;;0.50;;
26920;SDS011;14483;47.844;9.660;2022-09-12T15:08:21;0.40;;;0.40;;
26920;SDS011;14483;47.844;9.660;2022-09-12T15:10:48;0.50;;;0.43;;
26920;SDS011;14483;47.844;9.660;2022-09-12T15:13:17;1.30;;;0.60;;
26920;SDS011;14483;47.844;9.660;2022-09-12T15:15:44;2.17;;;0.45;;
26920;SDS011;14483;47.844;9.660;2022-09-12T15:18:11;0.50;;;0.50;;
26920;SDS011;14483;47.844;9.660;2022-09-12T15:20:38;0.40;;;0.30;;
26920;SDS011;14483;47.844;9.660;2022-09-12T15:23:05;0.73;;;0.40;;
26920;SDS011;14483;47.844;9.660;2022-09-12T15:25:33;0.60;;;0.30;;
26920;SDS011;14483;47.844;9.660;2022-09-12T15:27:59;0.95;;;0.63;;
26920;SDS011;14483;47.844;9.660;2022-09-12T15:30:27;0.50;;;0.32;;
26920;SDS011;14483;47.844;9.660;2022-09-12T15:32:54;0.20;;;0.20;;